Time;durP1;ratioP1;P1;durP2;ratioP2;P2;SDS_P1;SDS_P2;PMS_P1;PMS_P2;Temp;Humidity;BMP_temperature;BMP_pressure;BME280_temperature;BME280_humidity;BME280_pressure;Samples;Min_cycle;Max_cycle;Signal;HPM_P1;HPM_P2
2023/09/01 00:00:37;;;;;;;3.10;2.10;;;;;;;15.18;67.30;94956.38;5091201;28;20102;-71
2023/09/01 00:03:02;;;;;;;3.85;2.00;;;;;;;15.34;67.33;94987.09;5081057;28;20032;-72
2023/09/01 00:05:32;;;;;;;3.38;1.90;;;;;;;15.34;67.54;94994.94;5089182;28;20028;-71
2023/09/01 00:07:57;;;;;;;3.20;2.22;;;;;;;15.19;67.91;94997.28;5073670;28;20111;-71
2023/09/01 00:10:22;;;;;;;4.05;2.00;;;;;;;15.26;67.71;94994.88;5088352;28;20474;-72
2023/09/01 00:12:48;;;;;;;4.68;2.20;;;;;;;15.32;68.15;95000.34;5088802;28;20059;-71
2023/09/01 00:15:13;;;;;;;5.03;2.08;;;;;;;15.30;66.86;94994.44;5056687;28;20024;-70
2023/09/01 00:17:39;;;;;;;2.83;1.83;;;;;;;15.38;66.88;94998.91;5089218;28;20036;-72
2023/09/01 00:20:05;;;;;;;3.88;2.00;;;;;;;14.90;68.51;94997.50;5084004;28;20035;-72
2023/09/01 00:22:30;;;;;;;5.03;2.00;;;;;;;14.90;68.47;95000.13;5072579;28;20456;-72
2023/09/01 00:24:56;;;;;;;4.10;2.15;;;;;;;14.89;68.86;95011.56;5069081;28;20102;-72
2023/09/01 00:27:21;;;;;;;2.90;1.70;;;;;;;15.03;68.41;94992.72;5090920;28;20039;-72
2023/09/01 00:29:47;;;;;;;3.80;2.20;;;;;;;15.12;67.89;95004.91;5089855;28;20020;-72
2023/09/01 00:32:12;;;;;;;3.33;2.10;;;;;;;15.17;68.20;95017.53;5053197;28;20040;-71
2023/09/01 00:34:38;;;;;;;3.88;2.13;;;;;;;15.12;68.27;95007.50;5086106;28;20028;-71
2023/09/01 00:37:03;;;;;;;4.82;2.20;;;;;;;14.96;68.53;95002.16;5092838;28;20149;-71
2023/09/01 00:39:28;;;;;;;4.10;2.15;;;;;;;14.97;68.71;95020.31;5091044;28;20081;-71
2023/09/01 00:41:54;;;;;;;3.90;2.17;;;;;;;14.94;68.92;95014.56;5085277;28;20036;-72
2023/09/01 00:44:19;;;;;;;4.53;2.15;;;;;;;15.01;69.11;95014.78;5084012;28;20016;-71
2023/09/01 00:46:46;;;;;;;4.80;2.25;;;;;;;15.05;68.17;95016.13;5088612;28;20032;-73
2023/09/01 00:49:12;;;;;;;4.38;2.40;;;;;;;15.03;68.56;95016.28;5069504;28;20050;-73
2023/09/01 00:51:37;;;;;;;2.90;1.92;;;;;;;14.90;68.89;95002.72;5091257;28;20482;-72
2023/09/01 00:54:03;;;;;;;3.97;2.25;;;;;;;14.91;68.83;95005.22;5086845;28;20043;-72
2023/09/01 00:56:28;;;;;;;3.70;1.95;;;;;;;14.78;69.12;94996.09;5077469;28;20052;-73
2023/09/01 00:58:54;;;;;;;4.47;2.03;;;;;;;15.01;68.55;94994.66;5071317;28;20040;-73
2023/09/01 01:01:19;;;;;;;4.13;2.22;;;;;;;15.01;68.60;95004.31;5087198;28;20035;-72
2023/09/01 01:03:45;;;;;;;3.13;1.90;;;;;;;14.86;69.14;95001.41;5086012;28;20028;-72
2023/09/01 01:06:20;;;;;;;5.00;2.30;;;;;;;15.03;68.78;95005.81;5074933;28;20444;-73
2023/09/01 01:08:51;;;;;;;4.30;2.35;;;;;;;15.09;68.29;95012.22;5060003;28;20029;-72
2023/09/01 01:11:54;;;;;;;4.47;2.10;;;;;;;14.89;68.68;95016.78;5071314;28;20032;-72
2023/09/01 01:14:22;;;;;;;3.40;2.00;;;;;;;14.82;69.15;95016.56;5087984;28;20071;-73
2023/09/01 01:16:51;;;;;;;3.67;1.88;;;;;;;14.78;69.20;95009.97;5075079;28;20020;-73
2023/09/01 01:19:35;;;;;;;6.55;2.22;;;;;;;14.83;69.49;95017.38;5054331;28;20024;-72
2023/09/01 01:22:00;;;;;;;3.60;1.95;;;;;;;14.79;69.30;94998.53;5091446;28;20536;-73
2023/09/01 01:24:26;;;;;;;4.55;1.88;;;;;;;14.59;68.82;94969.09;5072372;28;20043;-72
2023/09/01 01:26:52;;;;;;;5.93;2.08;;;;;;;14.87;68.79;95003.03;5069539;28;20059;-71
2023/09/01 01:29:18;;;;;;;2.90;1.90;;;;;;;14.87;68.95;94972.47;5073753;28;20555;-71
2023/09/01 01:31:43;;;;;;;5.13;2.00;;;;;;;14.88;68.26;94986.38;5068456;28;20024;-72
2023/09/01 01:34:19;;;;;;;5.70;2.13;;;;;;;15.07;67.61;94996.69;5073802;28;20024;-72
2023/09/01 01:36:49;;;;;;;4.28;1.90;;;;;;;14.98;67.50;94997.59;5071298;28;20024;-72
2023/09/01 01:39:21;;;;;;;3.92;2.03;;;;;;;14.65;69.45;94981.56;5087493;28;20024;-72
2023/09/01 01:42:02;;;;;;;5.53;2.40;;;;;;;14.89;69.34;94990.63;5071755;28;20036;-71
2023/09/01 01:44:29;;;;;;;;;;;;;;;14.96;68.94;95000.38;5072476;28;20028;-72
2023/09/01 01:46:56;;;;;;;5.50;2.22;;;;;;;14.98;68.26;94994.97;5069440;28;19916;-72
2023/09/01 01:49:21;;;;;;;4.25;2.22;;;;;;;14.99;67.95;94994.00;5088409;28;20035;-72
2023/09/01 01:51:46;;;;;;;5.25;2.30;;;;;;;15.02;68.29;95001.56;5088641;28;20025;-72
2023/09/01 01:54:12;;;;;;;3.33;2.00;;;;;;;14.92;68.30;94991.16;5090181;28;20035;-72
2023/09/01 01:56:37;;;;;;;4.07;1.90;;;;;;;14.94;68.23;95001.47;5072038;28;20035;-72
2023/09/01 01:59:06;;;;;;;4.22;2.10;;;;;;;14.74;68.65;94993.78;5088994;28;20094;-72
2023/09/01 02:01:31;;;;;;;4.35;2.05;;;;;;;14.62;69.29;94994.13;5073719;28;20026;-72
2023/09/01 02:03:57;;;;;;;3.97;2.08;;;;;;;14.79;69.47;95001.16;5056380;28;20036;-72
2023/09/01 02:06:22;;;;;;;3.08;1.75;;;;;;;14.76;69.29;94996.22;5087380;28;20031;-72
2023/09/01 02:08:48;;;;;;;5.28;2.30;;;;;;;14.85;68.74;95000.59;5087077;28;20043;-72
2023/09/01 02:11:13;;;;;;;4.32;2.15;;;;;;;14.63;68.54;94967.84;5073300;28;20535;-72
2023/09/01 02:13:39;;;;;;;4.60;2.22;;;;;;;14.43;70.35;94993.25;5072660;28;20063;-72
2023/09/01 02:16:05;;;;;;;3.97;2.22;;;;;;;14.45;70.40;94996.50;5053902;28;20046;-72
2023/09/01 02:18:31;;;;;;;3.47;2.15;;;;;;;14.38;70.58;94992.03;5090040;28;20028;-71
2023/09/01 02:20:57;;;;;;;5.13;2.50;;;;;;;14.55;70.76;94999.13;5089793;28;20107;-71
2023/09/01 02:23:22;;;;;;;6.40;2.47;;;;;;;14.23;70.40;94957.72;5083668;28;20036;-72
2023/09/01 02:25:48;;;;;;;5.07;2.10;;;;;;;14.30;71.28;95001.41;5064957;28;20502;-71
2023/09/01 02:28:13;;;;;;;3.50;2.30;;;;;;;14.21;71.57;94991.03;5071420;28;20490;-71
2023/09/01 02:30:39;;;;;;;4.82;2.20;;;;;;;14.13;71.77;94983.91;5053244;28;20504;-71
2023/09/01 02:33:04;;;;;;;4.40;2.20;;;;;;;14.23;71.48;94995.13;5069945;28;20036;-71
2023/09/01 02:35:30;;;;;;;3.10;2.08;;;;;;;14.33;71.55;95002.09;5078016;28;20491;-72
2023/09/01 02:37:55;;;;;;;5.15;2.15;;;;;;;14.40;70.90;94984.84;5069694;28;20490;-72
2023/09/01 02:40:24;;;;;;;4.18;2.10;;;;;;;14.09;71.03;94962.44;5070663;28;20032;-72
2023/09/01 02:42:50;;;;;;;5.20;2.15;;;;;;;14.30;70.91;94990.16;5038777;28;20040;-72
2023/09/01 02:45:15;;;;;;;3.20;2.00;;;;;;;14.09;70.58;94966.84;5056446;28;20101;-72
2023/09/01 02:47:41;;;;;;;3.80;1.88;;;;;;;14.49;70.09;95007.53;5089968;28;20489;-72
2023/09/01 02:50:06;;;;;;;5.03;2.45;;;;;;;14.34;70.27;94991.50;5068894;28;20025;-72
2023/09/01 02:52:32;;;;;;;3.70;2.33;;;;;;;14.22;70.88;95013.56;5060222;28;20056;-72
2023/09/01 02:54:58;;;;;;;4.30;2.45;;;;;;;14.40;70.53;95001.38;5073045;28;20536;-72
2023/09/01 02:57:23;;;;;;;4.18;2.22;;;;;;;14.37;70.57;95014.72;5051968;28;20040;-71
2023/09/01 02:59:50;;;;;;;3.13;2.10;;;;;;;14.26;70.70;95007.91;5070957;28;20037;-71
2023/09/01 03:02:15;;;;;;;4.00;2.20;;;;;;;14.21;71.03;95006.72;5063941;28;20445;-72
2023/09/01 03:04:41;;;;;;;5.47;2.30;;;;;;;14.27;70.71;94996.47;5089500;28;20084;-72
2023/09/01 03:07:06;;;;;;;4.00;2.58;;;;;;;14.47;70.44;94999.81;5072773;28;20028;-72
2023/09/01 03:09:32;;;;;;;3.38;2.13;;;;;;;14.51;70.45;95005.56;5088925;28;20024;-72
2023/09/01 03:11:57;;;;;;;4.47;2.30;;;;;;;14.40;70.23;95003.16;5067169;28;20020;-72
2023/09/01 03:14:24;;;;;;;3.33;2.15;;;;;;;14.34;70.54;95007.16;5052434;28;20502;-71
2023/09/01 03:16:49;;;;;;;4.30;2.40;;;;;;;14.52;70.21;95004.66;5069419;28;20017;-72
2023/09/01 03:19:15;;;;;;;3.90;1.95;;;;;;;14.65;69.64;95009.50;5051928;28;20040;-71
2023/09/01 03:21:40;;;;;;;5.10;2.17;;;;;;;14.58;70.09;95014.50;5069245;28;20425;-72
2023/09/01 03:24:06;;;;;;;4.20;2.25;;;;;;;14.52;69.58;95012.50;5085839;28;20032;-72
2023/09/01 03:26:32;;;;;;;3.58;2.22;;;;;;;14.51;69.51;95016.03;5069497;28;20032;-72
2023/09/01 03:28:57;;;;;;;5.13;2.25;;;;;;;14.47;70.11;95012.06;5070695;28;20036;-72
2023/09/01 03:31:22;;;;;;;2.90;1.90;;;;;;;14.48;69.82;95016.31;5069207;28;20020;-72
2023/09/01 03:33:48;;;;;;;5.55;2.40;;;;;;;14.48;69.75;95008.47;5052378;28;20041;-71
2023/09/01 03:36:14;;;;;;;4.10;2.10;;;;;;;14.43;70.12;95013.31;5068762;28;20025;-72
2023/09/01 03:38:39;;;;;;;5.00;2.30;;;;;;;14.46;69.86;95011.25;5052251;28;20025;-72
2023/09/01 03:41:05;;;;;;;4.00;2.22;;;;;;;14.51;69.54;95018.63;5087801;28;20047;-72
2023/09/01 03:43:31;;;;;;;3.10;2.08;;;;;;;14.48;69.53;95018.94;5077952;28;20041;-72
2023/09/01 03:45:57;;;;;;;3.25;2.20;;;;;;;14.38;69.85;95012.94;5056489;28;20075;-72
2023/09/01 03:48:26;;;;;;;4.22;2.13;;;;;;;14.36;69.61;95004.41;5036087;28;20037;-72
2023/09/01 03:51:12;;;;;;;4.95;2.20;;;;;;;14.45;70.17;95014.81;5052769;28;20032;-72
2023/09/01 03:53:38;;;;;;;4.90;2.20;;;;;;;14.45;69.89;95017.44;5069099;28;20052;-72
2023/09/01 03:56:08;;;;;;;3.75;2.38;;;;;;;14.46;69.68;95021.69;5052367;28;20419;-72
2023/09/01 03:58:33;;;;;;;3.92;2.05;;;;;;;14.44;70.10;95017.59;5081259;28;20039;-72
2023/09/01 04:00:59;;;;;;;4.53;2.30;;;;;;;14.38;70.32;95019.00;5065186;28;20036;-72
2023/09/01 04:03:24;;;;;;;4.05;1.90;;;;;;;14.42;70.23;95019.50;5088011;28;20035;-72
2023/09/01 04:05:57;;;;;;;3.10;2.08;;;;;;;14.44;70.16;95021.03;5043845;28;20448;-72
2023/09/01 04:08:23;;;;;;;4.47;2.33;;;;;;;14.45;69.83;95027.88;5052942;28;20040;-72
2023/09/01 04:10:48;;;;;;;4.35;2.25;;;;;;;14.47;70.37;95031.19;5037263;28;20044;-72
2023/09/01 04:13:14;;;;;;;4.72;2.47;;;;;;;14.47;70.22;95028.56;5072315;28;20057;-72
2023/09/01 04:15:39;;;;;;;5.22;2.28;;;;;;;14.49;69.83;95034.47;5060653;28;20081;-72
2023/09/01 04:18:05;;;;;;;3.85;2.42;;;;;;;14.52;69.80;95036.00;5092736;28;20036;-72
2023/09/01 04:20:30;;;;;;;3.33;2.33;;;;;;;14.55;69.53;95030.50;5090016;28;20028;-72
2023/09/01 04:22:55;;;;;;;4.32;2.05;;;;;;;14.46;69.70;95029.53;5073292;28;20040;-72
2023/09/01 04:25:21;;;;;;;4.35;2.13;;;;;;;14.69;69.26;95044.88;5072313;28;20029;-72
2023/09/01 04:27:46;;;;;;;3.72;2.20;;;;;;;14.60;69.20;95043.09;5072201;28;20040;-72
2023/09/01 04:30:12;;;;;;;3.47;2.38;;;;;;;14.69;68.83;95043.06;5090087;28;20085;-73
2023/09/01 04:32:37;;;;;;;3.97;2.22;;;;;;;14.67;68.75;95052.03;5072096;28;20482;-72
2023/09/01 04:35:04;;;;;;;3.45;2.20;;;;;;;14.60;69.11;95054.41;5066880;28;20028;-72
2023/09/01 04:37:30;;;;;;;3.15;2.10;;;;;;;14.59;68.64;95044.91;5073182;28;20063;-73
2023/09/01 04:39:55;;;;;;;3.92;2.10;;;;;;;14.61;68.84;95050.81;5038694;28;20522;-73
2023/09/01 04:42:21;;;;;;;3.08;2.03;;;;;;;14.71;68.83;95046.38;5073275;28;20375;-73
2023/09/01 04:44:46;;;;;;;3.47;2.08;;;;;;;14.80;68.81;95049.06;5078168;28;20032;-73
2023/09/01 04:47:11;;;;;;;4.70;2.58;;;;;;;15.44;67.07;95042.00;5075125;28;20036;-73
2023/09/01 04:49:37;;;;;;;3.45;2.10;;;;;;;15.96;65.09;95050.72;5075209;28;20024;-73
2023/09/01 04:52:03;;;;;;;3.72;2.13;;;;;;;16.42;63.55;95046.06;5086039;28;20398;-73
2023/09/01 04:54:28;;;;;;;4.40;2.30;;;;;;;16.51;63.10;95052.16;5055245;28;20119;-73
2023/09/01 04:56:55;;;;;;;3.72;2.22;;;;;;;16.59;62.25;95054.81;5071708;28;20025;-73
2023/09/01 04:59:20;;;;;;;5.32;2.65;;;;;;;16.83;61.50;95059.38;5067650;28;20026;-73
2023/09/01 05:01:46;;;;;;;4.35;2.47;;;;;;;16.94;62.50;95068.75;5086885;28;20036;-72
2023/09/01 05:04:14;;;;;;;4.65;2.95;;;;;;;17.08;62.19;95038.44;5092956;28;20175;-73
2023/09/01 05:06:40;;;;;;;5.50;2.65;;;;;;;18.08;59.72;95068.03;5086593;28;20029;-73
2023/09/01 05:09:05;;;;;;;3.17;2.28;;;;;;;18.74;57.14;95055.53;5063114;28;20036;-73
2023/09/01 05:11:30;;;;;;;5.28;3.03;;;;;;;19.17;56.37;95071.78;5091685;28;20032;-73
2023/09/01 05:13:56;;;;;;;5.47;3.10;;;;;;;19.68;54.68;95076.56;5091108;28;20117;-73
2023/09/01 05:16:21;;;;;;;3.55;2.30;;;;;;;20.27;51.40;95074.84;5074660;28;20028;-73
2023/09/01 05:18:47;;;;;;;4.25;2.40;;;;;;;20.51;50.58;95078.25;5075670;28;20032;-76
2023/09/01 05:21:12;;;;;;;5.57;2.78;;;;;;;19.74;53.58;95075.84;5081933;28;20106;-73
2023/09/01 05:23:38;;;;;;;5.88;3.20;;;;;;;19.76;53.84;95063.31;5074670;28;20055;-73
2023/09/01 05:26:03;;;;;;;5.78;3.05;;;;;;;19.64;54.75;95082.16;5074451;28;20546;-73
2023/09/01 05:28:29;;;;;;;7.07;3.35;;;;;;;19.50;55.50;95084.72;5082435;28;20202;-73
2023/09/01 05:30:57;;;;;;;5.60;3.15;;;;;;;19.22;55.65;95082.56;5069149;28;20498;-73
2023/09/01 05:33:23;;;;;;;8.70;3.55;;;;;;;19.25;56.33;95070.88;5070927;28;20029;-73
2023/09/01 05:35:48;;;;;;;7.78;3.60;;;;;;;18.75;57.89;95086.13;5072153;28;20021;-73
2023/09/01 05:38:14;;;;;;;6.90;3.42;;;;;;;19.02;56.52;95071.66;5070916;28;20094;-73
2023/09/01 05:40:40;;;;;;;6.68;3.78;;;;;;;19.15;56.69;95084.28;5086628;28;20055;-73
2023/09/01 05:43:05;;;;;;;6.38;3.63;;;;;;;19.12;56.71;95088.06;5053926;28;20036;-74
2023/09/01 05:45:31;;;;;;;6.82;3.20;;;;;;;19.44;55.93;95086.22;5074065;28;20039;-73
2023/09/01 05:47:56;;;;;;;6.63;3.10;;;;;;;19.67;54.79;95080.16;5091884;28;20032;-74
2023/09/01 05:50:22;;;;;;;4.57;2.75;;;;;;;19.83;55.71;95091.41;5090642;28;20077;-73
2023/09/01 05:52:47;;;;;;;7.00;3.42;;;;;;;19.41;56.09;95089.22;5089105;28;20110;-73
2023/09/01 05:55:13;;;;;;;6.78;3.55;;;;;;;19.49;55.78;95073.34;5080670;28;20119;-73
2023/09/01 05:57:39;;;;;;;7.22;3.40;;;;;;;19.45;55.89;95081.81;5081256;28;20032;-73
2023/09/01 06:00:05;;;;;;;10.45;3.65;;;;;;;19.72;55.63;95083.91;5063336;28;20107;-74
2023/09/01 06:02:30;;;;;;;8.90;3.60;;;;;;;19.87;54.72;95076.06;5079574;28;20094;-73
2023/09/01 06:04:56;;;;;;;5.82;3.20;;;;;;;20.17;53.52;95089.31;5084260;28;20027;-74
2023/09/01 06:07:21;;;;;;;7.05;3.60;;;;;;;20.31;52.79;95091.97;5063897;28;20426;-75
2023/09/01 06:09:47;;;;;;;5.13;3.00;;;;;;;20.42;53.69;95090.72;5050370;28;20085;-74
2023/09/01 06:12:14;;;;;;;6.20;3.78;;;;;;;20.82;52.54;95086.00;5085966;28;20513;-74
2023/09/01 06:14:40;;;;;;;5.68;3.30;;;;;;;20.97;51.73;95092.06;5042972;28;20039;-73
2023/09/01 06:17:05;;;;;;;9.05;3.70;;;;;;;20.89;51.57;95086.88;5055497;28;20419;-72
2023/09/01 06:19:31;;;;;;;5.75;3.28;;;;;;;20.87;51.67;95093.38;5061585;28;20020;-72
2023/09/01 06:21:56;;;;;;;7.35;3.50;;;;;;;20.71;52.04;95078.56;5060415;28;20048;-72
2023/09/01 06:24:22;;;;;;;6.35;3.38;;;;;;;21.18;51.97;95101.06;5059172;28;20387;-73
2023/09/01 06:26:47;;;;;;;7.93;3.10;;;;;;;21.26;50.92;95100.97;5043916;28;20028;-72
2023/09/01 06:29:12;;;;;;;7.97;3.55;;;;;;;21.15;50.88;95101.44;5058593;28;20025;-72
2023/09/01 06:31:38;;;;;;;5.53;3.33;;;;;;;20.93;51.27;95101.38;5059768;28;20016;-72
2023/09/01 06:34:03;;;;;;;5.32;3.30;;;;;;;21.12;51.52;95104.47;5059735;28;20032;-72
2023/09/01 06:36:29;;;;;;;7.68;3.92;;;;;;;21.16;51.26;95114.44;5058360;28;20020;-72
2023/09/01 06:38:54;;;;;;;7.15;3.90;;;;;;;21.13;51.76;95114.81;5043591;28;20028;-72
2023/09/01 06:41:19;;;;;;;6.70;3.58;;;;;;;21.51;51.80;95113.88;5060639;28;20020;-72
2023/09/01 06:43:45;;;;;;;5.32;3.42;;;;;;;21.59;51.09;95111.06;5058638;28;20029;-72
2023/09/01 06:46:10;;;;;;;7.03;4.40;;;;;;;21.50;50.88;95107.75;5052995;28;20062;-72
2023/09/01 06:48:36;;;;;;;6.70;4.28;;;;;;;21.51;51.18;95119.16;5036484;28;20066;-73
2023/09/01 06:51:02;;;;;;;7.30;4.60;;;;;;;21.18;51.01;95115.09;5069699;28;20516;-72
2023/09/01 06:53:27;;;;;;;7.80;4.43;;;;;;;21.65;50.75;95118.28;5052920;28;20417;-73
2023/09/01 06:55:53;;;;;;;6.55;4.65;;;;;;;21.89;48.99;95105.69;5062113;28;20257;-75
2023/09/01 06:58:18;;;;;;;6.65;4.10;;;;;;;21.95;48.99;95112.84;5060317;28;20118;-74
2023/09/01 07:00:44;;;;;;;7.30;4.40;;;;;;;21.92;49.91;95114.03;5055787;28;20083;-72
2023/09/01 07:03:09;;;;;;;7.47;4.43;;;;;;;21.84;49.97;95109.72;5049249;28;20079;-72
2023/09/01 07:05:34;;;;;;;7.57;4.53;;;;;;;22.18;48.94;95115.34;5055929;28;20036;-71
2023/09/01 07:08:00;;;;;;;10.25;4.78;;;;;;;22.21;49.21;95109.66;5069004;28;20025;-74
2023/09/01 07:10:25;;;;;;;9.45;4.60;;;;;;;22.22;48.55;95114.75;5041588;28;20017;-74
2023/09/01 07:12:51;;;;;;;11.25;4.30;;;;;;;22.41;49.01;95123.84;5059379;28;20050;-74
2023/09/01 07:15:16;;;;;;;7.72;3.78;;;;;;;22.48;47.63;95113.28;5060529;28;20028;-74
2023/09/01 07:17:42;;;;;;;5.82;3.78;;;;;;;22.74;47.29;95118.75;5071066;28;20516;-77
2023/09/01 07:20:09;;;;;;;8.65;3.88;;;;;;;22.29;48.48;95126.22;5084695;28;20029;-75
2023/09/01 07:22:35;;;;;;;6.10;3.67;;;;;;;22.32;48.71;95122.34;5069237;28;20163;-74
2023/09/01 07:25:00;;;;;;;6.63;3.80;;;;;;;22.45;48.40;95117.13;5061387;28;20036;-75
2023/09/01 07:27:26;;;;;;;6.00;3.20;;;;;;;22.31;47.83;95110.13;5066950;28;20516;-74
2023/09/01 07:29:51;;;;;;;6.45;3.33;;;;;;;22.50;48.30;95108.63;5078438;28;20145;-75
2023/09/01 07:32:17;;;;;;;6.95;3.15;;;;;;;22.86;47.81;95119.03;5070930;28;20477;-75
2023/09/01 07:34:42;;;;;;;6.72;2.72;;;;;;;22.94;48.03;95124.16;5081357;28;20485;-74
2023/09/01 07:37:08;;;;;;;5.35;3.55;;;;;;;22.95;46.41;95124.97;5066262;28;20043;-75
2023/09/01 07:39:35;;;;;;;4.55;3.03;;;;;;;23.58;45.59;95119.56;5061443;28;20457;-75
2023/09/01 07:42:01;;;;;;;6.72;3.30;;;;;;;23.43;46.10;95111.78;5068088;28;20040;-76
2023/09/01 07:44:26;;;;;;;5.15;3.28;;;;;;;23.25;44.55;95119.44;5055131;28;20139;-75
2023/09/01 07:46:52;;;;;;;5.38;3.45;;;;;;;23.15;45.43;95109.19;5091843;28;20032;-76
2023/09/01 07:49:17;;;;;;;5.20;3.65;;;;;;;23.25;45.21;95104.34;5086461;28;20451;-78
2023/09/01 07:51:44;;;;;;;5.72;3.20;;;;;;;23.00;44.77;95095.28;5039873;28;20040;-79
2023/09/01 07:54:09;;;;;;;6.05;3.58;;;;;;;23.27;44.80;95117.44;5073276;28;20509;-79
2023/09/01 07:56:35;;;;;;;4.75;3.03;;;;;;;23.58;44.35;95109.75;5072952;28;20031;-79
2023/09/01 07:59:01;;;;;;;5.43;3.47;;;;;;;23.48;44.51;95104.00;5056363;28;20043;-79
2023/09/01 08:01:26;;;;;;;7.22;3.83;;;;;;;23.80;44.66;95117.59;5073115;28;20025;-78
2023/09/01 08:03:51;;;;;;;5.65;3.55;;;;;;;23.58;44.70;95112.41;5072303;28;20036;-74
2023/09/01 08:06:17;;;;;;;5.22;3.60;;;;;;;23.67;43.27;95110.38;5073196;28;20490;-73
2023/09/01 08:08:42;;;;;;;5.97;3.75;;;;;;;23.57;43.49;95113.44;5074240;28;20029;-74
2023/09/01 08:11:08;;;;;;;5.55;4.20;;;;;;;23.30;43.74;95111.72;5072681;28;20036;-76
2023/09/01 08:13:33;;;;;;;4.13;3.47;;;;;;;23.39;43.17;95099.91;5055657;28;20464;-73
2023/09/01 08:15:59;;;;;;;4.35;3.65;;;;;;;23.30;43.92;95106.44;5073404;28;20029;-73
2023/09/01 08:18:24;;;;;;;5.80;3.92;;;;;;;23.55;43.65;95110.16;5072616;28;20039;-76
2023/09/01 08:20:49;;;;;;;6.38;4.00;;;;;;;23.32;43.36;95094.63;5090271;28;20035;-76
2023/09/01 08:23:15;;;;;;;7.68;4.20;;;;;;;23.37;44.11;95113.38;5091269;28;20077;-73
2023/09/01 08:25:41;;;;;;;6.20;4.25;;;;;;;23.30;43.70;95079.94;5092465;28;20027;-74
2023/09/01 08:28:07;;;;;;;5.75;4.20;;;;;;;23.69;43.29;95110.19;5075536;28;20086;-73
2023/09/01 08:30:32;;;;;;;5.15;4.25;;;;;;;23.88;42.90;95105.97;5069979;28;20442;-73
2023/09/01 08:32:58;;;;;;;11.07;4.80;;;;;;;23.92;42.61;95110.66;5071761;28;20037;-73
2023/09/01 08:35:23;;;;;;;6.03;4.10;;;;;;;23.78;42.48;95098.41;5038649;28;20028;-73
2023/09/01 08:37:49;;;;;;;5.85;4.47;;;;;;;23.95;43.05;95089.03;5071344;28;20029;-74
2023/09/01 08:40:14;;;;;;;13.73;4.63;;;;;;;24.07;42.38;95083.94;5061668;28;20039;-75
2023/09/01 08:42:47;;;;;;;5.55;4.40;;;;;;;24.36;41.29;95090.66;5083476;28;20027;-75
2023/09/01 08:45:14;;;;;;;6.30;4.95;;;;;;;24.06;41.20;95096.38;5053146;28;20036;-75
2023/09/01 08:47:43;;;;;;;6.22;4.57;;;;;;;23.82;41.71;95086.38;5072180;28;20032;-75
2023/09/01 08:50:09;;;;;;;5.47;4.97;;;;;;;23.81;41.08;95090.84;5054777;28;20025;-74
2023/09/01 08:52:35;;;;;;;6.30;4.80;;;;;;;23.86;41.40;95098.22;5055169;28;20039;-74
2023/09/01 08:55:00;;;;;;;4.82;4.30;;;;;;;24.09;40.68;95087.19;5064215;28;20028;-76
2023/09/01 08:57:26;;;;;;;6.13;4.85;;;;;;;24.06;41.30;95091.06;5074155;28;20035;-76
2023/09/01 08:59:52;;;;;;;6.93;5.00;;;;;;;24.27;40.40;95097.22;5088881;28;20016;-74
2023/09/01 09:02:17;;;;;;;5.65;4.82;;;;;;;24.38;40.21;95078.00;5071181;28;20429;-76
2023/09/01 09:04:43;;;;;;;6.35;5.10;;;;;;;24.48;40.24;95091.69;5082711;28;20065;-73
2023/09/01 09:07:16;;;;;;;5.70;5.10;;;;;;;24.60;40.60;95081.28;5072830;28;20028;-75
2023/09/01 09:09:57;;;;;;;6.40;4.93;;;;;;;24.35;39.83;95062.50;5088358;28;20090;-75
2023/09/01 09:12:23;;;;;;;5.10;4.60;;;;;;;24.69;38.84;95076.56;5074648;28;20129;-76
2023/09/01 09:14:52;;;;;;;5.65;4.78;;;;;;;24.59;39.90;95090.25;5088422;28;20032;-74
2023/09/01 09:17:18;;;;;;;8.93;5.72;;;;;;;24.57;39.80;95094.13;5054393;28;20035;-75
2023/09/01 09:19:59;;;;;;;5.53;4.85;;;;;;;24.39;39.04;95087.59;5089002;28;20418;-74
2023/09/01 09:22:24;;;;;;;6.63;5.00;;;;;;;24.41;38.85;95082.91;5090122;28;20123;-73
2023/09/01 09:24:50;;;;;;;5.22;4.38;;;;;;;24.30;38.47;95071.06;5088146;28;20414;-73
2023/09/01 09:27:16;;;;;;;6.20;4.57;;;;;;;24.36;39.02;95077.41;5087600;28;20036;-75
2023/09/01 09:29:41;;;;;;;5.10;4.63;;;;;;;24.45;39.64;95078.84;5088967;28;20077;-74
2023/09/01 09:32:16;;;;;;;4.85;4.32;;;;;;;24.30;39.69;95079.03;5071834;28;20039;-73
2023/09/01 09:34:41;;;;;;;4.88;4.40;;;;;;;24.46;38.39;95061.06;5089065;28;20020;-74
2023/09/01 09:37:18;;;;;;;5.90;5.30;;;;;;;24.51;40.84;95066.56;5087463;28;20043;-74
2023/09/01 09:39:43;;;;;;;12.27;5.63;;;;;;;24.46;39.35;95058.41;5068947;28;20023;-76
2023/09/01 09:42:09;;;;;;;6.78;4.97;;;;;;;24.40;38.99;95065.31;5082901;28;20492;-76
2023/09/01 09:44:34;;;;;;;5.25;4.63;;;;;;;24.78;37.88;95067.34;5071745;28;20428;-75
2023/09/01 09:47:00;;;;;;;4.72;4.20;;;;;;;24.96;37.67;95054.19;5091367;28;20042;-76
2023/09/01 09:49:30;;;;;;;5.13;4.22;;;;;;;25.00;37.57;95053.78;5077715;28;20024;-75
2023/09/01 09:51:55;;;;;;;5.18;4.70;;;;;;;24.98;37.97;95056.63;5075614;28;20032;-75
2023/09/01 09:54:24;;;;;;;4.47;4.07;;;;;;;24.80;37.52;95049.34;5066355;28;20571;-74
2023/09/01 09:56:50;;;;;;;4.90;4.00;;;;;;;24.88;37.19;95056.28;5055884;28;20027;-75
2023/09/01 09:59:40;;;;;;;4.50;3.78;;;;;;;24.78;37.22;95051.41;5081066;28;20032;-74
2023/09/01 10:02:10;;;;;;;6.00;4.47;;;;;;;24.90;37.55;95051.56;5048416;28;20080;-74
2023/09/01 10:04:36;;;;;;;4.65;4.22;;;;;;;24.90;37.66;95046.25;5062870;28;20036;-74
2023/09/01 10:07:02;;;;;;;7.38;4.30;;;;;;;24.95;37.18;95041.13;5073518;28;20040;-74
2023/09/01 10:09:28;;;;;;;5.32;4.18;;;;;;;24.89;37.16;95039.31;5071231;28;20106;-74
2023/09/01 10:11:53;;;;;;;4.82;3.67;;;;;;;25.03;36.38;95037.41;5071670;28;20115;-75
2023/09/01 10:14:20;;;;;;;4.47;3.80;;;;;;;25.33;36.89;95051.81;5053266;28;20071;-75
2023/09/01 10:16:45;;;;;;;4.93;4.00;;;;;;;25.36;37.80;95048.72;5068936;28;20124;-75
2023/09/01 10:19:12;;;;;;;5.68;4.32;;;;;;;25.29;37.18;95044.47;5068511;28;20115;-76
2023/09/01 10:21:40;;;;;;;5.32;4.20;;;;;;;25.15;37.68;95035.72;5068250;28;20094;-76
2023/09/01 10:24:11;;;;;;;6.03;4.40;;;;;;;25.13;37.45;95046.56;5069324;28;20141;-76
2023/09/01 10:26:38;;;;;;;6.78;4.10;;;;;;;25.18;37.37;95051.25;5089577;28;20486;-75
2023/09/01 10:29:06;;;;;;;5.30;3.88;;;;;;;25.11;38.10;95045.94;5087731;28;20039;-75
2023/09/01 10:31:33;;;;;;;5.00;3.63;;;;;;;25.27;37.67;95046.50;5073517;28;20024;-75
2023/09/01 10:34:15;;;;;;;8.05;4.10;;;;;;;25.13;37.50;95040.41;5087367;28;20032;-75
2023/09/01 10:36:44;;;;;;;4.38;3.97;;;;;;;25.10;37.21;95024.88;5073469;28;20097;-75
2023/09/01 10:39:16;;;;;;;4.27;3.87;;;;;;;25.19;36.80;95039.63;5069997;28;20052;-76
2023/09/01 10:41:53;;;;;;;5.22;4.03;;;;;;;25.26;36.79;95031.59;5091017;28;20057;-75
2023/09/01 10:44:21;;;;;;;4.18;3.78;;;;;;;25.41;37.17;95040.91;5067768;28;20040;-74
2023/09/01 10:46:46;;;;;;;4.93;4.10;;;;;;;25.47;36.46;95030.47;5066479;28;20555;-76
2023/09/01 10:49:12;;;;;;;5.40;3.78;;;;;;;25.48;36.70;95035.56;5068239;28;21254;-76
2023/09/01 10:51:39;;;;;;;5.45;3.85;;;;;;;25.20;36.67;94990.72;5075129;28;20059;-77
2023/09/01 10:54:18;;;;;;;6.50;3.90;;;;;;;25.44;36.37;95029.06;5068834;28;20047;-78
2023/09/01 10:57:01;;;;;;;4.13;3.33;;;;;;;24.89;36.16;95021.53;5090052;28;20054;-77
2023/09/01 10:59:30;;;;;;;4.60;3.38;;;;;;;25.23;36.47;95026.72;5071051;28;20043;-76
2023/09/01 11:01:56;;;;;;;5.57;3.58;;;;;;;25.18;36.00;95022.03;5087827;28;20043;-77
2023/09/01 11:04:21;;;;;;;5.97;3.50;;;;;;;25.12;36.39;95015.69;5066232;28;20028;-77
2023/09/01 11:06:56;;;;;;;4.18;3.15;;;;;;;25.29;35.71;95013.38;5083739;28;20070;-77
2023/09/01 11:09:21;;;;;;;5.28;3.45;;;;;;;25.35;35.82;95014.34;5087132;28;20024;-76
2023/09/01 11:11:50;;;;;;;6.88;3.50;;;;;;;25.07;36.15;94998.75;5054150;28;20028;-76
2023/09/01 11:14:20;;;;;;;5.40;3.58;;;;;;;25.00;35.34;95001.44;5068132;28;20036;-76
2023/09/01 11:16:45;;;;;;;4.88;3.65;;;;;;;25.41;35.92;95006.34;5084044;28;20033;-77
2023/09/01 11:19:11;;;;;;;4.82;3.00;;;;;;;25.37;35.43;95012.31;5051150;28;20044;-77
2023/09/01 11:21:36;;;;;;;4.88;3.10;;;;;;;25.39;35.32;94989.78;5088551;28;20598;-76
2023/09/01 11:24:03;;;;;;;4.82;3.22;;;;;;;25.50;36.12;94995.47;5092450;28;20040;-77
2023/09/01 11:26:29;;;;;;;4.28;3.28;;;;;;;25.58;34.48;94989.88;5077020;28;20035;-77
2023/09/01 11:28:55;;;;;;;4.88;3.10;;;;;;;25.53;35.27;94987.06;5057781;28;20032;-76
2023/09/01 11:31:21;;;;;;;3.97;3.10;;;;;;;25.60;35.86;94987.81;5092883;28;20031;-76